Airfield :
LOGIN :

Register | Disclaimer

   EN    FR    IT 

 










Legend :    VFR   Marginal VFR   IFR   Intensive IFR   Very Intensive IFR
Visi :
Ceiling :
>= 8 km
>= 3000ft
5 to 8 km
1000 to 3000 ft
1500m to 5 km
500 to 1000 ft
800 to 1500m
200 to 500 ft
< 800m
< 200 ft
Symbols :   Thunderstorms  Fog  Heavy snow  Heavy precipitations  Wind > 20 kt
SIGMETs :     Misc.  Thunderstorms  Icing  Turbulence  Mountain Waves  Volcanic Ashes






- Airport Elevation : 538 ft
- IATA code : TNF


LFPN - Toussus Le Noble

CURRENT METAR :
  • 271600Z AUTO 32024G34KT 9999 SCT033/// BKN041/// BKN052/// 06/01 Q1005 NOSIG

EXPIRED METARs :
  • 271530Z AUTO 31025KT 9999 BKN030/// OVC035/// 07/01 Q1004 BECMG 30017G30KT
  • 271500Z AUTO 31025G39KT 9999 BKN025/// OVC032/// 07/02 Q1002 NOSIG
  • 271430Z AUTO 31025G38KT 9999 BKN023/// OVC029/// 07/02 Q1001 NOSIG
  • 271400Z AUTO 31029KT 9999 OVC022 07/03 Q0999 TEMPO 30025G40KT
  • 271330Z AUTO 32031G43KT 9999 BKN023 OVC029 07/03 Q0997 NOSIG

TAF TAF LFPN
Valid from the 27 at 15:00 until the 28 at 00:00 UTC


271400Z 2715/2724 27020G40KT 9999 BKN025
BECMG 2715/2717 30017G30KT
BECMG 2718/2721 26007KT CAVOK
ATIS : +33 1 39 56 54 70



MET'MAP, your aeronautical weather chart ! - Copyright ORBIFLY December 2007 - Disclaimer

ORBIFLY MET'MAP TEAM :

Programming & Development : Alexandra Zaïnal
Concept & original design : Baudouin d'Aumeries
Assistance for programming : Marc-Olivier Méhu
Technical & hardware support : Manuel Goepfert

Contact : metmap@orbifly.com




SOURCES & CREDITS :

   NOAA